createdAt,value
2017-10-01T00:01:38.004Z,31.60
2017-10-01T00:03:41.441Z,45.77
2017-10-01T00:05:44.193Z,35.30
2017-10-01T00:07:46.884Z,37.30
2017-10-01T00:09:49.577Z,35.63
2017-10-01T00:11:52.341Z,42.90
2017-10-01T00:13:54.973Z,50.50
2017-10-01T00:15:57.698Z,38.30
2017-10-01T00:18:00.462Z,49.93
2017-10-01T00:20:03.146Z,35.80
2017-10-01T00:22:06.626Z,41.13
2017-10-01T00:24:09.328Z,36.60
2017-10-01T00:26:12.064Z,38.37
2017-10-01T00:28:15.492Z,46.63
2017-10-01T00:30:18.149Z,43.03
2017-10-01T00:32:21.602Z,45.00
2017-10-01T00:34:24.339Z,48.77
2017-10-01T00:36:27.054Z,47.10
2017-10-01T00:38:29.737Z,39.53
2017-10-01T00:40:32.388Z,35.37
2017-10-01T00:42:35.308Z,42.57
2017-10-01T00:44:39.126Z,44.37
2017-10-01T00:46:42.659Z,41.30
2017-10-01T00:48:45.321Z,61.57
2017-10-01T00:50:48.063Z,32.63
2017-10-01T00:52:50.815Z,46.10
2017-10-01T00:54:54.590Z,29.63
2017-10-01T00:56:57.391Z,44.27
2017-10-01T00:59:00.070Z,41.43
2017-10-01T01:01:02.713Z,44.60
2017-10-01T01:03:05.461Z,49.70
2017-10-01T01:05:08.891Z,51.90
2017-10-01T01:07:12.711Z,42.90
2017-10-01T01:09:16.219Z,39.50
2017-10-01T01:11:18.905Z,39.30
2017-10-01T01:13:21.572Z,46.63
2017-10-01T01:15:24.319Z,52.23
2017-10-01T01:17:27.807Z,38.10
2017-10-01T01:19:30.588Z,38.33
2017-10-01T01:21:33.385Z,43.50
2017-10-01T01:23:36.088Z,33.53
2017-10-01T01:25:39.066Z,36.10
2017-10-01T01:27:41.902Z,37.90
2017-10-01T01:29:44.622Z,31.37
2017-10-01T01:31:47.361Z,44.73
2017-10-01T01:33:50.301Z,45.93
2017-10-01T01:35:53.058Z,52.57
2017-10-01T01:37:55.808Z,59.93
2017-10-01T01:39:58.679Z,58.03
2017-10-01T01:42:01.407Z,41.90
2017-10-01T01:44:04.162Z,55.53
2017-10-01T01:46:07.018Z,44.87
2017-10-01T01:48:09.782Z,44.00
2017-10-01T01:50:12.517Z,55.30
2017-10-01T01:52:15.248Z,38.03
2017-10-01T01:54:18.063Z,45.73
2017-10-01T01:56:20.744Z,37.10
2017-10-01T01:58:23.502Z,39.20
2017-10-01T02:00:26.236Z,47.07
2017-10-01T02:02:29.707Z,32.60
2017-10-01T02:04:32.489Z,31.13
2017-10-01T02:06:35.211Z,34.93
2017-10-01T02:08:37.899Z,36.83
2017-10-01T02:10:40.693Z,33.80
2017-10-01T02:12:44.219Z,35.43
2017-10-01T02:14:46.977Z,34.60
2017-10-01T02:16:50.482Z,35.20
2017-10-01T02:18:53.216Z,31.57
2017-10-01T02:20:55.995Z,37.90
2017-10-01T02:22:58.696Z,45.77
2017-10-01T02:25:01.370Z,38.57
2017-10-01T02:27:04.051Z,30.10
2017-10-01T02:29:06.783Z,32.97
2017-10-01T02:31:09.502Z,43.97
2017-10-01T02:33:12.194Z,37.33
2017-10-01T02:35:14.928Z,37.47
2017-10-01T02:37:17.945Z,30.07
2017-10-01T02:39:21.545Z,32.73
2017-10-01T02:41:24.468Z,37.67
2017-10-01T02:43:27.955Z,38.37
2017-10-01T02:45:31.693Z,34.03
2017-10-01T02:47:34.483Z,35.83
2017-10-01T02:49:37.280Z,40.43
2017-10-01T02:51:40.019Z,31.43
2017-10-01T02:53:42.838Z,28.87
2017-10-01T02:55:45.668Z,36.20
2017-10-01T02:57:48.369Z,31.77
2017-10-01T02:59:51.061Z,31.90
2017-10-01T03:01:53.812Z,25.97
2017-10-01T03:03:56.515Z,24.33
2017-10-01T03:05:59.377Z,27.17
2017-10-01T03:08:02.560Z,28.47
2017-10-01T03:10:05.241Z,25.40
2017-10-01T03:12:08.851Z,21.17
2017-10-01T03:14:11.579Z,24.43
2017-10-01T03:16:15.084Z,28.27
2017-10-01T03:18:18.557Z,28.50
2017-10-01T03:20:21.329Z,30.47
2017-10-01T03:22:24.039Z,28.40
2017-10-01T03:24:26.724Z,32.00
2017-10-01T03:26:29.551Z,23.13
2017-10-01T03:28:32.226Z,29.43
2017-10-01T03:30:34.909Z,24.40
2017-10-01T03:32:37.784Z,22.33
2017-10-01T03:34:40.448Z,26.03
2017-10-01T03:36:43.144Z,36.13
2017-10-01T03:38:45.879Z,27.53
2017-10-01T03:40:48.582Z,24.77
2017-10-01T03:42:51.329Z,28.27
2017-10-01T03:44:54.077Z,25.13
2017-10-01T03:46:57.587Z,24.33
2017-10-01T03:49:01.047Z,28.77
2017-10-01T03:51:03.783Z,34.00
2017-10-01T03:53:06.530Z,23.13
2017-10-01T03:55:10.193Z,30.17
2017-10-01T03:57:12.967Z,24.60
2017-10-01T03:59:15.644Z,28.63
2017-10-01T04:01:18.334Z,26.00
2017-10-01T04:03:21.082Z,27.30
2017-10-01T04:05:23.728Z,31.40
2017-10-01T04:07:26.416Z,28.73
2017-10-01T04:09:29.335Z,33.13
2017-10-01T04:11:31.996Z,31.87
2017-10-01T04:13:34.670Z,52.23
2017-10-01T04:15:37.463Z,36.27
2017-10-01T04:17:40.127Z,35.20
2017-10-01T04:19:42.882Z,39.73
2017-10-01T04:21:45.577Z,44.43
2017-10-01T04:23:48.319Z,41.00
2017-10-01T04:25:51.046Z,36.37
2017-10-01T04:27:53.746Z,50.97
2017-10-01T04:29:57.349Z,40.67
2017-10-01T04:32:00.791Z,39.40
2017-10-01T04:34:03.542Z,39.07
2017-10-01T04:36:06.242Z,48.10
2017-10-01T04:38:08.879Z,37.40
2017-10-01T04:40:12.386Z,34.83
2017-10-01T04:42:15.818Z,42.20
2017-10-01T04:44:18.554Z,45.70
2017-10-01T04:46:23.224Z,39.53
2017-10-01T04:48:26.062Z,38.37
2017-10-01T04:50:29.540Z,41.00
2017-10-01T04:52:32.990Z,50.37
2017-10-01T04:54:35.699Z,34.27
2017-10-01T04:56:38.425Z,31.20
2017-10-01T04:58:41.131Z,39.90
2017-10-01T05:00:43.791Z,28.83
2017-10-01T05:02:46.456Z,31.10
2017-10-01T05:04:49.191Z,36.10
2017-10-01T05:06:51.872Z,30.43
2017-10-01T05:08:55.357Z,27.80
2017-10-01T05:10:58.170Z,30.20
2017-10-01T05:13:00.851Z,30.50
2017-10-01T05:15:04.069Z,28.23
2017-10-01T05:17:07.537Z,30.23
2017-10-01T05:19:10.247Z,35.43
2017-10-01T05:21:12.942Z,33.00
2017-10-01T05:23:15.675Z,43.20
2017-10-01T05:25:18.363Z,35.70
2017-10-01T05:27:21.046Z,31.20
2017-10-01T05:29:23.722Z,40.57
2017-10-01T05:31:26.480Z,32.43
2017-10-01T05:33:29.193Z,34.53
2017-10-01T05:35:31.948Z,31.47
2017-10-01T05:37:34.637Z,33.97
2017-10-01T05:39:37.395Z,31.00
2017-10-01T05:41:40.104Z,29.10
2017-10-01T05:43:42.749Z,27.47
2017-10-01T05:45:45.484Z,35.47
2017-10-01T05:47:48.925Z,29.07
2017-10-01T05:49:51.688Z,30.00
2017-10-01T05:51:54.409Z,25.53
2017-10-01T05:53:57.117Z,34.47
2017-10-01T05:56:00.718Z,30.57
2017-10-01T05:58:03.523Z,24.13
2017-10-01T06:00:06.165Z,29.53
2017-10-01T06:02:24.643Z,33.03
2017-10-01T06:04:27.609Z,24.03
2017-10-01T06:06:30.258Z,27.13
2017-10-01T06:08:32.996Z,29.83
2017-10-01T06:10:35.696Z,29.37
2017-10-01T06:12:38.375Z,27.07
2017-10-01T06:14:41.328Z,28.23
2017-10-01T06:16:44.027Z,18.10
2017-10-01T06:18:47.525Z,30.20
2017-10-01T06:20:50.184Z,24.33
2017-10-01T06:22:52.879Z,25.43
2017-10-01T06:24:55.626Z,27.20
2017-10-01T06:26:58.282Z,17.53
2017-10-01T06:29:01.023Z,22.37
2017-10-01T06:31:03.725Z,21.63
2017-10-01T06:33:07.166Z,21.10
2017-10-01T06:35:09.894Z,19.93
2017-10-01T06:37:13.305Z,27.13
2017-10-01T06:39:16.172Z,21.50
2017-10-01T06:41:19.578Z,14.63
2017-10-01T06:43:22.365Z,20.90
2017-10-01T06:45:25.161Z,14.30
2017-10-01T06:47:27.822Z,18.83
2017-10-01T06:49:30.557Z,19.53
2017-10-01T06:51:33.466Z,14.83
2017-10-01T06:53:36.124Z,16.77
2017-10-01T06:55:38.885Z,15.30
2017-10-01T06:57:41.567Z,12.67
2017-10-01T06:59:44.265Z,15.47
2017-10-01T07:01:47.890Z,14.40
2017-10-01T07:03:50.575Z,19.30
2017-10-01T07:05:53.345Z,14.93
2017-10-01T07:07:56.007Z,12.10
2017-10-01T07:09:58.760Z,21.13
2017-10-01T07:12:02.244Z,14.50
2017-10-01T07:14:05.782Z,13.20
2017-10-01T07:16:08.507Z,11.47
2017-10-01T07:18:11.245Z,13.53
2017-10-01T07:20:13.995Z,9.97
2017-10-01T07:22:17.447Z,15.60
2017-10-01T07:24:20.093Z,9.40
2017-10-01T07:26:22.834Z,14.70
2017-10-01T07:28:26.356Z,9.53
2017-10-01T07:30:29.530Z,11.10
2017-10-01T07:32:32.197Z,13.37
2017-10-01T07:34:35.723Z,10.90
2017-10-01T07:36:38.365Z,11.53
2017-10-01T07:38:41.888Z,11.30
2017-10-01T07:40:44.595Z,8.63
2017-10-01T07:42:47.271Z,7.13
2017-10-01T07:44:49.949Z,9.90
2017-10-01T07:46:52.624Z,12.10
2017-10-01T07:48:55.299Z,12.77
2017-10-01T07:50:58.011Z,9.40
2017-10-01T07:53:00.902Z,7.17
2017-10-01T07:55:04.505Z,8.13
2017-10-01T07:57:07.934Z,6.93
2017-10-01T07:59:10.620Z,10.47
2017-10-01T08:01:13.375Z,13.83
2017-10-01T08:03:16.507Z,14.90
2017-10-01T08:05:19.183Z,7.83
2017-10-01T08:07:21.870Z,11.73
2017-10-01T08:11:39.027Z,12.27
2017-10-01T08:13:41.775Z,12.57
2017-10-01T08:15:44.470Z,9.27
2017-10-01T08:17:48.127Z,11.93
2017-10-01T08:19:50.895Z,8.13
2017-10-01T08:21:53.677Z,9.80
2017-10-01T08:23:57.260Z,11.20
2017-10-01T08:26:00.126Z,9.40
2017-10-01T08:28:02.777Z,12.20
2017-10-01T08:30:06.329Z,6.10
2017-10-01T08:32:08.979Z,21.67
2017-10-01T08:34:11.744Z,9.97
2017-10-01T08:36:14.538Z,12.10
2017-10-01T08:38:17.213Z,10.23
2017-10-01T08:40:19.993Z,10.67
2017-10-01T08:42:22.769Z,9.90
2017-10-01T08:44:25.446Z,11.30
2017-10-01T08:46:28.463Z,13.17
2017-10-01T08:48:31.208Z,9.93
2017-10-01T08:50:33.929Z,10.60
2017-10-01T08:52:36.590Z,10.27
2017-10-01T08:54:39.265Z,10.97
2017-10-01T08:56:41.921Z,9.23
2017-10-01T08:58:44.582Z,11.10
2017-10-01T09:00:47.253Z,17.40
2017-10-01T09:02:49.902Z,11.60
2017-10-01T09:04:53.306Z,13.20
2017-10-01T09:06:56.933Z,14.63
2017-10-01T09:08:59.599Z,13.77
2017-10-01T09:11:02.259Z,111.87
2017-10-01T09:13:05.723Z,116.97
2017-10-01T09:15:08.378Z,10.17
2017-10-01T09:17:11.144Z,9.90
2017-10-01T09:19:13.830Z,17.73
2017-10-01T09:21:16.496Z,12.33
2017-10-01T09:23:19.176Z,28.33
2017-10-01T09:25:21.871Z,36.10
2017-10-01T09:27:24.737Z,12.03
2017-10-01T09:29:27.495Z,10.00
2017-10-01T09:31:30.173Z,12.13
2017-10-01T09:33:32.899Z,10.07
2017-10-01T09:35:35.619Z,12.23
2017-10-01T09:37:38.382Z,10.10
2017-10-01T09:39:41.900Z,10.97
2017-10-01T09:41:44.677Z,11.77
2017-10-01T09:43:48.283Z,11.10
2017-10-01T09:45:50.930Z,11.73
2017-10-01T09:47:54.445Z,9.07
2017-10-01T09:49:57.191Z,7.90
2017-10-01T09:52:00.620Z,10.47
2017-10-01T09:54:03.302Z,13.43
2017-10-01T09:56:06.046Z,9.77
2017-10-01T09:58:09.638Z,8.87
2017-10-01T10:00:13.071Z,16.33
2017-10-01T10:02:15.753Z,10.80
2017-10-01T10:04:18.417Z,12.37
2017-10-01T10:06:21.069Z,9.70
2017-10-01T10:08:24.607Z,8.20
2017-10-01T10:10:28.053Z,8.33
2017-10-01T10:12:31.476Z,11.07
2017-10-01T10:14:34.159Z,8.60
2017-10-01T10:16:36.797Z,10.27
2017-10-01T10:18:40.251Z,12.87
2017-10-01T10:20:42.930Z,8.30
2017-10-01T10:22:45.612Z,16.57
2017-10-01T10:24:48.257Z,10.73
2017-10-01T10:26:50.944Z,10.17
2017-10-01T10:28:53.622Z,11.43
2017-10-01T10:30:56.364Z,10.33
2017-10-01T10:32:59.513Z,13.57
2017-10-01T10:35:02.166Z,20.73
2017-10-01T10:37:04.959Z,8.80
2017-10-01T10:39:07.655Z,11.30
2017-10-01T10:41:10.357Z,9.83
2017-10-01T10:43:13.562Z,8.63
2017-10-01T10:45:16.305Z,11.57
2017-10-01T10:47:19.773Z,18.80
2017-10-01T10:49:22.504Z,9.00
2017-10-01T10:51:25.276Z,13.40
2017-10-01T10:53:27.935Z,12.10
2017-10-01T10:55:31.509Z,12.17
2017-10-01T10:57:34.210Z,11.47
2017-10-01T10:59:37.701Z,12.93
2017-10-01T11:01:41.114Z,13.13
2017-10-01T11:03:43.831Z,14.77
2017-10-01T11:05:46.477Z,10.43
2017-10-01T11:07:49.156Z,11.73
2017-10-01T11:09:51.994Z,13.00
2017-10-01T11:11:54.660Z,16.47
2017-10-01T11:13:57.314Z,16.77
2017-10-01T11:16:00.030Z,16.37
2017-10-01T11:18:03.437Z,9.60
2017-10-01T11:20:06.917Z,8.20
2017-10-01T11:22:10.367Z,14.47
2017-10-01T11:24:13.033Z,12.00
2017-10-01T11:26:15.695Z,10.43
2017-10-01T11:28:18.475Z,14.17
2017-10-01T11:30:21.212Z,12.30
2017-10-01T11:32:23.881Z,16.97
2017-10-01T11:34:26.568Z,15.13
2017-10-01T11:36:29.273Z,11.17
2017-10-01T11:38:31.935Z,11.73
2017-10-01T11:40:35.381Z,9.57
2017-10-01T11:42:38.052Z,10.00
2017-10-01T11:44:40.711Z,11.20
2017-10-01T11:46:43.475Z,10.37
2017-10-01T11:48:46.132Z,10.80
2017-10-01T11:50:49.642Z,6.13
2017-10-01T11:52:52.438Z,10.10
2017-10-01T11:54:55.114Z,8.17
2017-10-01T11:56:57.846Z,9.67
2017-10-01T11:59:01.316Z,8.83
2017-10-01T12:01:03.987Z,4.73
2017-10-01T12:03:06.682Z,7.10
2017-10-01T12:05:09.359Z,7.60
2017-10-01T12:07:12.088Z,11.73
2017-10-01T12:09:14.868Z,8.10
2017-10-01T12:11:17.553Z,8.40
2017-10-01T12:13:20.282Z,9.13
2017-10-01T12:15:22.969Z,6.20
2017-10-01T12:17:26.402Z,6.70
2017-10-01T12:19:29.107Z,11.00
2017-10-01T12:21:31.761Z,9.73
2017-10-01T12:23:34.524Z,5.50
2017-10-01T12:25:37.282Z,11.20
2017-10-01T12:27:39.943Z,14.33
2017-10-01T12:29:43.456Z,4.43
2017-10-01T12:31:46.112Z,5.73
2017-10-01T12:33:49.521Z,5.30
2017-10-01T12:35:52.968Z,6.73
2017-10-01T12:37:55.685Z,10.97
2017-10-01T12:39:59.090Z,7.00
2017-10-01T12:42:01.753Z,7.90
2017-10-01T12:44:05.276Z,8.70
2017-10-01T12:46:07.935Z,9.03
2017-10-01T12:48:11.447Z,5.90
2017-10-01T12:50:14.145Z,9.13
2017-10-01T12:52:16.798Z,7.27
2017-10-01T12:54:19.683Z,9.27
2017-10-01T12:56:22.367Z,6.57
2017-10-01T12:58:25.031Z,8.43
2017-10-01T13:00:33.675Z,8.30
2017-10-01T13:02:36.415Z,7.50
2017-10-01T13:04:39.071Z,8.43
2017-10-01T13:06:42.606Z,5.40
2017-10-01T13:08:45.260Z,4.97
2017-10-01T13:10:47.994Z,5.43
2017-10-01T13:12:50.771Z,8.23
2017-10-01T13:14:53.407Z,9.07
2017-10-01T13:16:56.135Z,6.27
2017-10-01T13:18:58.826Z,5.50
2017-10-01T13:21:02.278Z,7.67
2017-10-01T13:23:05.008Z,6.90
2017-10-01T13:25:08.452Z,5.93
2017-10-01T13:27:11.202Z,6.50
2017-10-01T13:29:13.908Z,6.77
2017-10-01T13:31:16.597Z,8.60
2017-10-01T13:33:19.335Z,6.10
2017-10-01T13:35:22.011Z,9.37
2017-10-01T13:37:24.715Z,6.87
2017-10-01T13:39:27.380Z,6.93
2017-10-01T13:41:30.031Z,5.77
2017-10-01T13:43:32.736Z,5.97
2017-10-01T13:45:35.387Z,5.30
2017-10-01T13:47:38.064Z,11.33
2017-10-01T13:49:40.845Z,5.23
2017-10-01T13:51:43.499Z,4.60
2017-10-01T13:53:46.991Z,4.60
2017-10-01T13:55:50.421Z,12.37
2017-10-01T13:57:53.086Z,5.97
2017-10-01T13:59:55.773Z,12.17
2017-10-01T14:01:58.444Z,11.87
2017-10-01T14:04:01.179Z,6.50
2017-10-01T14:06:04.652Z,8.43
2017-10-01T14:08:07.326Z,7.47
2017-10-01T14:10:10.001Z,5.73
2017-10-01T14:12:12.663Z,7.67
2017-10-01T14:14:15.327Z,8.27
2017-10-01T14:16:18.108Z,6.43
2017-10-01T14:18:20.768Z,3.07
2017-10-01T14:20:23.459Z,8.57
2017-10-01T14:22:26.112Z,4.03
2017-10-01T14:24:28.766Z,6.10
2017-10-01T14:26:32.192Z,4.83
2017-10-01T14:28:34.848Z,7.70
2017-10-01T14:30:43.872Z,5.87
2017-10-01T14:32:46.565Z,6.57
2017-10-01T14:34:49.207Z,6.53
2017-10-01T14:36:52.608Z,8.67
2017-10-01T14:38:56.062Z,3.37
2017-10-01T14:40:58.809Z,9.13
2017-10-01T14:43:01.583Z,6.43
2017-10-01T14:45:04.254Z,6.77
2017-10-01T14:47:06.893Z,6.40
2017-10-01T14:49:09.609Z,7.30
2017-10-01T14:51:12.302Z,5.57
2017-10-01T14:53:14.959Z,2.70
2017-10-01T14:55:17.702Z,7.50
2017-10-01T14:57:20.372Z,4.87
2017-10-01T14:59:23.098Z,6.10
2017-10-01T15:01:25.770Z,6.73
2017-10-01T15:03:28.454Z,7.10
2017-10-01T15:05:31.210Z,15.07
2017-10-01T15:07:33.857Z,4.43
2017-10-01T15:09:36.569Z,6.07
2017-10-01T15:11:39.294Z,6.20
2017-10-01T15:13:41.957Z,8.47
2017-10-01T15:15:44.720Z,8.43
2017-10-01T15:17:47.427Z,7.70
2017-10-01T15:19:50.078Z,10.03
2017-10-01T15:21:52.785Z,8.20
2017-10-01T15:23:55.438Z,6.87
2017-10-01T15:25:58.109Z,7.23
2017-10-01T15:28:00.900Z,7.90
2017-10-01T15:30:03.583Z,9.07
2017-10-01T15:32:06.229Z,9.30
2017-10-01T15:34:08.962Z,16.63
2017-10-01T15:36:11.611Z,8.03
2017-10-01T15:38:14.300Z,10.33
2017-10-01T15:40:16.984Z,8.17
2017-10-01T15:42:19.651Z,10.80
2017-10-01T15:44:22.386Z,7.80
2017-10-01T15:46:25.046Z,3.40
2017-10-01T15:48:27.681Z,9.63
2017-10-01T15:50:30.415Z,16.30
2017-10-01T15:52:33.060Z,9.70
2017-10-01T15:54:36.493Z,6.80
2017-10-01T15:56:39.178Z,10.20
2017-10-01T15:58:41.817Z,6.33
2017-10-01T16:00:44.609Z,7.40
2017-10-01T16:02:47.273Z,6.63
2017-10-01T16:04:49.922Z,7.30
2017-10-01T16:06:52.617Z,3.40
2017-10-01T16:08:56.068Z,10.77
2017-10-01T16:10:58.722Z,9.53
2017-10-01T16:13:01.418Z,10.03
2017-10-01T16:15:04.110Z,6.00
2017-10-01T16:17:06.951Z,10.40
2017-10-01T16:19:09.721Z,4.80
2017-10-01T16:21:12.500Z,12.13
2017-10-01T16:23:15.163Z,7.50
2017-10-01T16:25:17.831Z,10.60
2017-10-01T16:27:20.628Z,9.87
2017-10-01T16:29:23.346Z,9.33
2017-10-01T16:31:26.019Z,9.00
2017-10-01T16:33:28.715Z,5.40
2017-10-01T16:35:31.356Z,11.63
2017-10-01T16:37:34.916Z,7.47
2017-10-01T16:39:37.705Z,9.87
2017-10-01T16:41:40.592Z,10.37
2017-10-01T16:43:43.268Z,5.37
2017-10-01T16:45:46.015Z,13.40
2017-10-01T16:47:49.483Z,9.20
2017-10-01T16:49:52.169Z,7.67
2017-10-01T16:51:54.826Z,7.77
2017-10-01T16:53:57.586Z,7.07
2017-10-01T16:56:00.315Z,6.07
2017-10-01T16:58:03.752Z,13.67
2017-10-01T17:00:07.555Z,6.90
2017-10-01T17:02:10.237Z,9.17
2017-10-01T17:04:12.898Z,5.53
2017-10-01T17:06:15.674Z,12.80
2017-10-01T17:08:18.358Z,9.07
2017-10-01T17:10:21.068Z,9.60
2017-10-01T17:12:23.737Z,12.43
2017-10-01T17:14:26.417Z,6.53
2017-10-01T17:16:29.075Z,9.30
2017-10-01T17:18:31.734Z,8.77
2017-10-01T17:20:34.545Z,7.93
2017-10-01T17:22:37.204Z,9.40
2017-10-01T17:24:39.964Z,6.50
2017-10-01T17:26:42.743Z,11.00
2017-10-01T17:28:45.415Z,14.20
2017-10-01T17:30:48.076Z,16.50
2017-10-01T17:32:50.808Z,9.67
2017-10-01T17:34:53.448Z,7.80
2017-10-01T17:36:56.309Z,10.23
2017-10-01T17:38:59.068Z,10.47
2017-10-01T17:41:01.723Z,13.80
2017-10-01T17:43:04.445Z,10.13
2017-10-01T17:45:07.100Z,16.10
2017-10-01T17:47:10.550Z,15.40
2017-10-01T17:49:13.509Z,11.57
2017-10-01T17:51:16.201Z,8.30
2017-10-01T17:53:18.941Z,14.10
2017-10-01T17:55:22.487Z,20.73
2017-10-01T17:57:25.188Z,28.23
2017-10-01T17:59:27.937Z,14.93
2017-10-01T18:01:30.617Z,12.20
2017-10-01T18:03:33.401Z,14.17
2017-10-01T18:05:36.149Z,27.83
2017-10-01T18:07:38.831Z,15.67
2017-10-01T18:09:41.546Z,15.83
2017-10-01T18:11:44.201Z,19.17
2017-10-01T18:13:46.978Z,10.10
2017-10-01T18:15:49.940Z,22.60
2017-10-01T18:17:52.936Z,14.40
2017-10-01T18:19:55.760Z,16.60
2017-10-01T18:21:59.513Z,15.20
2017-10-01T18:24:02.389Z,20.83
2017-10-01T18:26:05.978Z,13.60
2017-10-01T18:28:08.790Z,11.30
2017-10-01T18:30:11.562Z,13.33
2017-10-01T18:32:15.550Z,14.50
2017-10-01T18:34:18.256Z,12.20
2017-10-01T18:36:21.079Z,13.90
2017-10-01T18:38:24.814Z,10.60
2017-10-01T18:40:27.685Z,15.83
2017-10-01T18:42:30.670Z,11.47
2017-10-01T18:44:34.664Z,12.07
2017-10-01T18:46:37.309Z,11.73
2017-10-01T18:48:40.915Z,8.60
2017-10-01T18:50:44.321Z,7.53
2017-10-01T18:52:47.161Z,9.63
2017-10-01T18:54:50.120Z,8.50
2017-10-01T18:56:52.791Z,15.43
2017-10-01T18:58:55.623Z,14.00
2017-10-01T19:00:59.061Z,8.33
2017-10-01T19:03:01.833Z,16.23
2017-10-01T19:05:04.492Z,11.10
2017-10-01T19:07:07.286Z,11.73
2017-10-01T19:09:10.272Z,15.33
2017-10-01T19:11:13.156Z,16.03
2017-10-01T19:13:15.948Z,10.67
2017-10-01T19:15:19.730Z,10.97
2017-10-01T19:17:22.560Z,17.10
2017-10-01T19:19:26.349Z,26.73
2017-10-01T19:21:29.011Z,16.33
2017-10-01T19:23:31.711Z,12.77
2017-10-01T19:25:34.363Z,15.97
2017-10-01T19:27:37.196Z,11.70
2017-10-01T19:29:40.667Z,10.83
2017-10-01T19:31:43.322Z,12.13
2017-10-01T19:33:46.046Z,17.87
2017-10-01T19:35:49.481Z,16.00
2017-10-01T19:37:52.934Z,19.90
2017-10-01T19:39:58.178Z,13.13
2017-10-01T19:42:01.142Z,19.00
2017-10-01T19:44:06.073Z,13.80
2017-10-01T19:46:09.766Z,14.20
2017-10-01T19:48:12.583Z,11.03
2017-10-01T19:50:15.613Z,15.20
2017-10-01T19:52:18.338Z,10.93
2017-10-01T19:54:21.058Z,18.00
2017-10-01T19:56:23.744Z,13.77
2017-10-01T19:58:27.903Z,18.17
2017-10-01T20:00:30.716Z,12.57
2017-10-01T20:02:33.824Z,15.00
2017-10-01T20:04:37.000Z,15.40
2017-10-01T20:06:39.722Z,12.73
2017-10-01T20:08:43.231Z,12.73
2017-10-01T20:10:45.907Z,16.00
2017-10-01T20:12:48.615Z,17.30
2017-10-01T20:14:51.341Z,17.47
2017-10-01T20:16:54.781Z,13.60
2017-10-01T20:18:57.455Z,9.47
2017-10-01T20:21:00.145Z,10.20
2017-10-01T20:23:02.828Z,19.53
2017-10-01T20:25:05.570Z,16.83
2017-10-01T20:27:08.303Z,10.47
2017-10-01T20:29:11.749Z,21.67
2017-10-01T20:31:14.439Z,10.20
2017-10-01T20:33:17.093Z,23.47
2017-10-01T20:35:19.783Z,20.50
2017-10-01T20:37:22.555Z,14.13
2017-10-01T20:39:25.234Z,12.53
2017-10-01T20:41:27.913Z,15.73
2017-10-01T20:43:30.618Z,12.40
2017-10-01T20:45:34.073Z,10.17
2017-10-01T20:47:36.952Z,11.83
2017-10-01T20:49:39.592Z,10.60
2017-10-01T20:51:43.050Z,22.47
2017-10-01T20:53:45.739Z,13.37
2017-10-01T20:55:48.394Z,11.77
2017-10-01T20:57:51.122Z,8.60
2017-10-01T20:59:54.656Z,14.03
2017-10-01T21:01:57.315Z,18.57
2017-10-01T21:04:00.191Z,19.40
2017-10-01T21:06:02.910Z,8.57
2017-10-01T21:08:05.692Z,17.70
2017-10-01T21:10:08.443Z,12.00
2017-10-01T21:12:11.178Z,12.97
2017-10-01T21:14:14.740Z,10.90
2017-10-01T21:16:17.599Z,15.17
2017-10-01T21:18:20.371Z,15.10
2017-10-01T21:20:23.149Z,10.97
2017-10-01T21:22:25.797Z,14.63
2017-10-01T21:24:29.529Z,14.37
2017-10-01T21:26:32.188Z,12.43
2017-10-01T21:28:34.864Z,13.43
2017-10-01T21:30:37.689Z,8.93
2017-10-01T21:32:40.348Z,10.63
2017-10-01T21:34:43.218Z,9.87
2017-10-01T21:36:45.875Z,13.43
2017-10-01T21:38:48.671Z,12.83
2017-10-01T21:40:52.284Z,19.27
2017-10-01T21:42:54.940Z,7.73
2017-10-01T21:44:57.790Z,6.90
2017-10-01T21:47:01.373Z,8.70
2017-10-01T21:49:04.171Z,12.60
2017-10-01T21:51:07.672Z,7.77
2017-10-01T21:53:11.108Z,14.97
2017-10-01T21:55:13.902Z,8.00
2017-10-01T21:57:16.747Z,10.60
2017-10-01T21:59:19.609Z,13.33
2017-10-01T22:01:23.022Z,9.23
2017-10-01T22:03:25.666Z,9.20
2017-10-01T22:05:29.123Z,8.90
2017-10-01T22:07:31.984Z,9.70
2017-10-01T22:09:34.789Z,12.80
2017-10-01T22:11:37.486Z,12.03
2017-10-01T22:13:42.182Z,5.73
2017-10-01T22:15:44.829Z,9.20
2017-10-01T22:17:47.709Z,17.20
2017-10-01T22:19:50.604Z,13.47
2017-10-01T22:21:53.246Z,14.40
2017-10-01T22:23:57.171Z,9.20
2017-10-01T22:25:59.934Z,13.73
2017-10-01T22:28:02.728Z,8.00
2017-10-01T22:30:05.444Z,16.53
2017-10-01T22:32:08.181Z,10.30
2017-10-01T22:34:10.880Z,7.87
2017-10-01T22:36:13.558Z,7.57
2017-10-01T22:38:16.312Z,11.60
2017-10-01T22:40:19.190Z,9.00
2017-10-01T22:42:21.871Z,10.13
2017-10-01T22:44:24.512Z,10.20
2017-10-01T22:46:28.146Z,14.97
2017-10-01T22:48:31.156Z,8.57
2017-10-01T22:50:33.821Z,13.70
2017-10-01T22:52:36.481Z,8.80
2017-10-01T22:54:39.154Z,11.63
2017-10-01T22:56:41.838Z,11.10
2017-10-01T22:58:44.576Z,7.80
2017-10-01T23:00:50.181Z,5.33
2017-10-01T23:02:52.827Z,12.00
2017-10-01T23:04:55.741Z,10.70
2017-10-01T23:06:58.418Z,11.03
2017-10-01T23:09:01.132Z,7.53
2017-10-01T23:11:04.836Z,9.30
2017-10-01T23:13:08.301Z,9.40
2017-10-01T23:15:10.978Z,7.87
2017-10-01T23:17:13.641Z,11.43
2017-10-01T23:19:16.437Z,7.80
2017-10-01T23:21:19.886Z,8.60
2017-10-01T23:23:22.543Z,6.90
2017-10-01T23:25:25.354Z,5.83
2017-10-01T23:27:28.015Z,17.87
2017-10-01T23:29:30.863Z,11.53
2017-10-01T23:31:34.428Z,12.83
2017-10-01T23:33:37.062Z,9.97
2017-10-01T23:35:39.920Z,11.80
2017-10-01T23:37:43.442Z,7.30
2017-10-01T23:39:46.428Z,11.30
2017-10-01T23:41:49.096Z,8.47
2017-10-01T23:43:51.787Z,13.43
2017-10-01T23:45:54.511Z,7.30
2017-10-01T23:47:57.918Z,9.53
2017-10-01T23:50:01.623Z,7.80
2017-10-01T23:52:05.017Z,7.60
2017-10-01T23:54:08.571Z,15.20
2017-10-01T23:56:11.270Z,6.80
2017-10-01T23:58:13.916Z,12.33
